sensor_id;sensor_type;location;lat;lon;timestamp;P1;durP1;ratioP1;P2;durP2;ratioP2
55663;SDS011;41540;57.880;12.164;2023-08-12T00:04:53;5.10;;;3.92;;
55663;SDS011;41540;57.880;12.164;2023-08-12T00:14:53;6.63;;;3.47;;
55663;SDS011;41540;57.880;12.164;2023-08-12T00:24:54;6.03;;;3.83;;
55663;SDS011;41540;57.880;12.164;2023-08-12T00:34:54;5.30;;;3.70;;
55663;SDS011;41540;57.880;12.164;2023-08-12T00:44:54;5.25;;;4.45;;
55663;SDS011;41540;57.880;12.164;2023-08-12T00:54:55;6.72;;;4.55;;
55663;SDS011;41540;57.880;12.164;2023-08-12T01:04:55;7.05;;;5.35;;
55663;SDS011;41540;57.880;12.164;2023-08-12T01:14:56;5.75;;;4.53;;
55663;SDS011;41540;57.880;12.164;2023-08-12T01:25:03;6.32;;;4.40;;
55663;SDS011;41540;57.880;12.164;2023-08-12T01:35:18;7.85;;;4.38;;
55663;SDS011;41540;57.880;12.164;2023-08-12T01:45:21;5.80;;;4.25;;
55663;SDS011;41540;57.880;12.164;2023-08-12T01:55:22;7.15;;;4.57;;
55663;SDS011;41540;57.880;12.164;2023-08-12T02:05:23;7.32;;;4.65;;
55663;SDS011;41540;57.880;12.164;2023-08-12T02:15:23;10.57;;;5.50;;
55663;SDS011;41540;57.880;12.164;2023-08-12T02:25:23;6.40;;;4.47;;
55663;SDS011;41540;57.880;12.164;2023-08-12T02:35:24;10.18;;;4.50;;
55663;SDS011;41540;57.880;12.164;2023-08-12T02:45:24;4.90;;;4.10;;
55663;SDS011;41540;57.880;12.164;2023-08-12T02:55:24;12.63;;;4.45;;
55663;SDS011;41540;57.880;12.164;2023-08-12T03:05:25;7.00;;;4.57;;
55663;SDS011;41540;57.880;12.164;2023-08-12T03:15:25;8.85;;;5.28;;
55663;SDS011;41540;57.880;12.164;2023-08-12T03:25:26;10.93;;;5.32;;
55663;SDS011;41540;57.880;12.164;2023-08-12T03:35:26;7.78;;;4.60;;
55663;SDS011;41540;57.880;12.164;2023-08-12T03:45:26;8.57;;;6.05;;
55663;SDS011;41540;57.880;12.164;2023-08-12T03:55:27;5.47;;;4.72;;
55663;SDS011;41540;57.880;12.164;2023-08-12T04:05:30;6.07;;;4.18;;
55663;SDS011;41540;57.880;12.164;2023-08-12T04:15:31;7.80;;;4.97;;
55663;SDS011;41540;57.880;12.164;2023-08-12T04:25:31;13.23;;;4.72;;
55663;SDS011;41540;57.880;12.164;2023-08-12T04:35:31;8.45;;;5.07;;
55663;SDS011;41540;57.880;12.164;2023-08-12T04:45:32;5.18;;;4.65;;
55663;SDS011;41540;57.880;12.164;2023-08-12T04:55:34;5.85;;;4.07;;
55663;SDS011;41540;57.880;12.164;2023-08-12T05:05:35;5.70;;;4.67;;
55663;SDS011;41540;57.880;12.164;2023-08-12T05:15:36;7.30;;;3.78;;
55663;SDS011;41540;57.880;12.164;2023-08-12T05:25:36;7.03;;;4.57;;
55663;SDS011;41540;57.880;12.164;2023-08-12T05:35:38;10.37;;;4.93;;
55663;SDS011;41540;57.880;12.164;2023-08-12T05:45:39;11.23;;;4.65;;
55663;SDS011;41540;57.880;12.164;2023-08-12T05:55:39;7.82;;;5.43;;
55663;SDS011;41540;57.880;12.164;2023-08-12T06:05:40;7.95;;;4.57;;
55663;SDS011;41540;57.880;12.164;2023-08-12T06:15:41;9.50;;;4.70;;
55663;SDS011;41540;57.880;12.164;2023-08-12T06:25:41;9.15;;;5.93;;
55663;SDS011;41540;57.880;12.164;2023-08-12T06:35:43;8.13;;;5.32;;
55663;SDS011;41540;57.880;12.164;2023-08-12T06:45:44;11.60;;;5.47;;
55663;SDS011;41540;57.880;12.164;2023-08-12T06:55:44;7.47;;;4.90;;
55663;SDS011;41540;57.880;12.164;2023-08-12T07:05:45;6.00;;;4.40;;
55663;SDS011;41540;57.880;12.164;2023-08-12T07:15:46;7.25;;;5.22;;
55663;SDS011;41540;57.880;12.164;2023-08-12T07:25:46;5.35;;;3.95;;
55663;SDS011;41540;57.880;12.164;2023-08-12T07:35:47;5.23;;;4.13;;
55663;SDS011;41540;57.880;12.164;2023-08-12T07:45:51;6.47;;;3.60;;
55663;SDS011;41540;57.880;12.164;2023-08-12T07:55:52;6.22;;;4.75;;
55663;SDS011;41540;57.880;12.164;2023-08-12T08:05:53;6.30;;;5.38;;
55663;SDS011;41540;57.880;12.164;2023-08-12T08:15:53;6.30;;;5.50;;
55663;SDS011;41540;57.880;12.164;2023-08-12T08:25:54;10.30;;;7.30;;
55663;SDS011;41540;57.880;12.164;2023-08-12T08:35:54;14.27;;;7.78;;
55663;SDS011;41540;57.880;12.164;2023-08-12T08:45:55;10.00;;;6.80;;
55663;SDS011;41540;57.880;12.164;2023-08-12T08:55:56;7.07;;;6.03;;
55663;SDS011;41540;57.880;12.164;2023-08-12T09:15:58;6.32;;;5.32;;
55663;SDS011;41540;57.880;12.164;2023-08-12T09:25:58;10.38;;;5.22;;
55663;SDS011;41540;57.880;12.164;2023-08-12T09:35:59;9.23;;;5.03;;
55663;SDS011;41540;57.880;12.164;2023-08-12T09:56:02;5.25;;;3.85;;
55663;SDS011;41540;57.880;12.164;2023-08-12T10:06:06;5.18;;;3.53;;
55663;SDS011;41540;57.880;12.164;2023-08-12T10:16:08;4.63;;;2.90;;
55663;SDS011;41540;57.880;12.164;2023-08-12T10:26:12;7.45;;;2.78;;
55663;SDS011;41540;57.880;12.164;2023-08-12T10:36:14;4.47;;;2.13;;
55663;SDS011;41540;57.880;12.164;2023-08-12T10:46:22;2.67;;;1.98;;
55663;SDS011;41540;57.880;12.164;2023-08-12T10:56:22;7.35;;;3.10;;
55663;SDS011;41540;57.880;12.164;2023-08-12T11:06:23;2.95;;;2.20;;
55663;SDS011;41540;57.880;12.164;2023-08-12T11:16:36;4.25;;;2.47;;
55663;SDS011;41540;57.880;12.164;2023-08-12T11:26:37;3.40;;;2.15;;
55663;SDS011;41540;57.880;12.164;2023-08-12T11:36:40;6.43;;;3.03;;
55663;SDS011;41540;57.880;12.164;2023-08-12T11:46:42;9.15;;;3.00;;
55663;SDS011;41540;57.880;12.164;2023-08-12T11:56:42;6.03;;;3.03;;
55663;SDS011;41540;57.880;12.164;2023-08-12T12:06:43;5.70;;;3.05;;
55663;SDS011;41540;57.880;12.164;2023-08-12T12:16:45;16.40;;;2.95;;
55663;SDS011;41540;57.880;12.164;2023-08-12T12:26:46;12.90;;;2.72;;
55663;SDS011;41540;57.880;12.164;2023-08-12T12:36:47;7.50;;;3.30;;
55663;SDS011;41540;57.880;12.164;2023-08-12T12:46:47;5.43;;;2.80;;
55663;SDS011;41540;57.880;12.164;2023-08-12T12:56:48;2.45;;;2.22;;
55663;SDS011;41540;57.880;12.164;2023-08-12T13:06:48;5.93;;;2.67;;
55663;SDS011;41540;57.880;12.164;2023-08-12T13:16:48;3.75;;;2.70;;
55663;SDS011;41540;57.880;12.164;2023-08-12T13:26:49;3.70;;;2.30;;
55663;SDS011;41540;57.880;12.164;2023-08-12T13:36:50;2.47;;;1.90;;
55663;SDS011;41540;57.880;12.164;2023-08-12T13:46:51;3.30;;;1.87;;
55663;SDS011;41540;57.880;12.164;2023-08-12T13:56:51;3.00;;;1.77;;
55663;SDS011;41540;57.880;12.164;2023-08-12T14:06:51;2.92;;;2.03;;
55663;SDS011;41540;57.880;12.164;2023-08-12T14:16:52;3.17;;;1.97;;
55663;SDS011;41540;57.880;12.164;2023-08-12T14:26:52;4.83;;;1.97;;
55663;SDS011;41540;57.880;12.164;2023-08-12T14:36:53;2.87;;;2.00;;
55663;SDS011;41540;57.880;12.164;2023-08-12T14:46:53;2.53;;;1.80;;
55663;SDS011;41540;57.880;12.164;2023-08-12T14:56:53;2.50;;;1.83;;
55663;SDS011;41540;57.880;12.164;2023-08-12T15:06:54;3.30;;;1.90;;
55663;SDS011;41540;57.880;12.164;2023-08-12T15:16:56;1.77;;;1.67;;
55663;SDS011;41540;57.880;12.164;2023-08-12T15:26:57;2.17;;;1.98;;
55663;SDS011;41540;57.880;12.164;2023-08-12T15:36:58;1.58;;;1.48;;
55663;SDS011;41540;57.880;12.164;2023-08-12T15:46:59;3.03;;;2.78;;
55663;SDS011;41540;57.880;12.164;2023-08-12T15:56:59;2.50;;;2.25;;
55663;SDS011;41540;57.880;12.164;2023-08-12T16:06:59;1.88;;;1.77;;
55663;SDS011;41540;57.880;12.164;2023-08-12T16:17:00;2.13;;;1.92;;
55663;SDS011;41540;57.880;12.164;2023-08-12T16:27:01;4.57;;;2.30;;
55663;SDS011;41540;57.880;12.164;2023-08-12T16:37:04;10.57;;;2.38;;
55663;SDS011;41540;57.880;12.164;2023-08-12T16:47:05;2.33;;;2.13;;
55663;SDS011;41540;57.880;12.164;2023-08-12T16:57:05;7.18;;;2.67;;
55663;SDS011;41540;57.880;12.164;2023-08-12T17:07:06;2.97;;;2.67;;
55663;SDS011;41540;57.880;12.164;2023-08-12T17:17:06;2.42;;;2.13;;
55663;SDS011;41540;57.880;12.164;2023-08-12T17:27:06;2.50;;;2.30;;
55663;SDS011;41540;57.880;12.164;2023-08-12T17:37:07;5.32;;;2.67;;
55663;SDS011;41540;57.880;12.164;2023-08-12T17:47:07;2.35;;;2.05;;
55663;SDS011;41540;57.880;12.164;2023-08-12T17:57:07;4.43;;;2.03;;
55663;SDS011;41540;57.880;12.164;2023-08-12T18:07:08;3.17;;;2.55;;
55663;SDS011;41540;57.880;12.164;2023-08-12T18:17:09;3.38;;;2.38;;
55663;SDS011;41540;57.880;12.164;2023-08-12T18:27:09;2.15;;;2.00;;
55663;SDS011;41540;57.880;12.164;2023-08-12T18:37:10;4.47;;;2.50;;
55663;SDS011;41540;57.880;12.164;2023-08-12T18:47:10;4.32;;;2.88;;
55663;SDS011;41540;57.880;12.164;2023-08-12T18:57:15;5.35;;;4.18;;
55663;SDS011;41540;57.880;12.164;2023-08-12T19:07:15;3.33;;;2.57;;
55663;SDS011;41540;57.880;12.164;2023-08-12T19:17:16;2.60;;;2.28;;
55663;SDS011;41540;57.880;12.164;2023-08-12T19:27:16;3.03;;;2.83;;
55663;SDS011;41540;57.880;12.164;2023-08-12T19:37:17;3.28;;;2.90;;
55663;SDS011;41540;57.880;12.164;2023-08-12T19:47:17;5.85;;;2.58;;
55663;SDS011;41540;57.880;12.164;2023-08-12T19:57:18;6.60;;;2.88;;
55663;SDS011;41540;57.880;12.164;2023-08-12T20:07:18;4.00;;;3.20;;
55663;SDS011;41540;57.880;12.164;2023-08-12T20:17:18;19.45;;;3.40;;
55663;SDS011;41540;57.880;12.164;2023-08-12T20:27:21;4.03;;;3.63;;
55663;SDS011;41540;57.880;12.164;2023-08-12T20:37:22;11.35;;;3.08;;
55663;SDS011;41540;57.880;12.164;2023-08-12T20:47:23;4.50;;;3.20;;
55663;SDS011;41540;57.880;12.164;2023-08-12T20:57:24;3.97;;;2.80;;
55663;SDS011;41540;57.880;12.164;2023-08-12T21:07:24;3.65;;;3.22;;
55663;SDS011;41540;57.880;12.164;2023-08-12T21:17:25;4.28;;;3.88;;
55663;SDS011;41540;57.880;12.164;2023-08-12T21:27:25;5.37;;;3.80;;
55663;SDS011;41540;57.880;12.164;2023-08-12T21:37:26;4.25;;;3.33;;
55663;SDS011;41540;57.880;12.164;2023-08-12T21:47:26;6.82;;;3.85;;
55663;SDS011;41540;57.880;12.164;2023-08-12T21:57:26;4.75;;;4.15;;
55663;SDS011;41540;57.880;12.164;2023-08-12T22:07:27;4.43;;;3.67;;
55663;SDS011;41540;57.880;12.164;2023-08-12T22:17:28;5.18;;;3.10;;
55663;SDS011;41540;57.880;12.164;2023-08-12T22:27:29;3.47;;;3.10;;
55663;SDS011;41540;57.880;12.164;2023-08-12T22:37:29;2.85;;;2.22;;
55663;SDS011;41540;57.880;12.164;2023-08-12T22:47:30;2.70;;;2.45;;
55663;SDS011;41540;57.880;12.164;2023-08-12T22:57:30;2.22;;;2.00;;
55663;SDS011;41540;57.880;12.164;2023-08-12T23:07:30;2.75;;;2.25;;
55663;SDS011;41540;57.880;12.164;2023-08-12T23:17:31;3.50;;;2.15;;
55663;SDS011;41540;57.880;12.164;2023-08-12T23:27:31;4.38;;;2.78;;
55663;SDS011;41540;57.880;12.164;2023-08-12T23:37:32;2.97;;;2.13;;
55663;SDS011;41540;57.880;12.164;2023-08-12T23:47:32;3.75;;;2.80;;
55663;SDS011;41540;57.880;12.164;2023-08-12T23:57:33;5.25;;;3.58;;
